Time;durP1;ratioP1;P1;durP2;ratioP2;P2;SDS_P1;SDS_P2;PMS_P1;PMS_P2;Temp;Humidity;BMP_temperature;BMP_pressure;BME280_temperature;BME280_humidity;BME280_pressure;Samples;Min_cycle;Max_cycle;Signal;HPM_P1;HPM_P2
2022/12/23 00:00:17;;;;;;;6.70;2.30;;;10.40;99.90;;;10.40;100.00;99829.84;5225511;28;20048;-72
2022/12/23 00:02:49;;;;;;;4.93;2.70;;;10.40;99.90;;;10.37;100.00;99829.75;5225182;28;20055;-71
2022/12/23 00:05:22;;;;;;;8.05;2.80;;;10.40;99.90;;;10.36;100.00;99823.66;5218993;28;20059;-70
2022/12/23 00:07:54;;;;;;;9.27;2.85;;;10.40;99.90;;;10.35;100.00;99824.53;5224159;28;20502;-70
2022/12/23 00:10:26;;;;;;;7.43;2.42;;;10.40;99.90;;;10.35;100.00;99834.94;5225468;28;20378;-71
2022/12/23 00:15:48;;;;;;;4.70;2.72;;;10.40;99.90;;;10.37;100.00;99841.09;5225115;28;20048;-70
2022/12/23 00:18:20;;;;;;;3.55;1.98;;;10.40;99.90;;;10.37;100.00;99828.06;5224953;28;20071;-70
2022/12/23 00:20:59;;;;;;;4.20;2.05;;;10.40;99.90;;;10.36;100.00;99826.28;5207508;28;20071;-70
2022/12/23 00:23:32;;;;;;;6.63;2.40;;;10.40;99.90;;;10.37;100.00;99833.28;5224657;28;20497;-71
2022/12/23 00:26:05;;;;;;;5.80;1.95;;;10.40;99.90;;;10.37;100.00;99833.28;5225453;28;20045;-70
2022/12/23 00:28:37;;;;;;;3.80;1.73;;;10.40;99.90;;;10.39;100.00;99836.78;5224554;28;20036;-70
2022/12/23 00:31:11;;;;;;;3.35;1.73;;;10.40;99.90;;;10.41;100.00;99837.69;5225479;28;20052;-71
2022/12/23 00:33:45;;;;;;;3.97;1.60;;;10.40;99.90;;;10.42;100.00;99846.38;5224063;28;20409;-71
2022/12/23 00:36:22;;;;;;;2.80;1.50;;;10.40;99.90;;;10.43;100.00;99843.81;5206293;28;20051;-70
2022/12/23 00:44:34;;;;;;;3.20;1.52;;;10.50;99.90;;;10.42;100.00;99855.06;5201986;28;20119;-70
2022/12/23 00:49:40;;;;;;;2.70;1.23;;;10.40;99.90;;;10.43;100.00;99856.84;5223840;28;20037;-70
2022/12/23 00:49:57;;;;;;;2.80;1.40;;;10.50;99.90;;;10.45;100.00;99864.69;5224416;28;20044;-70
2022/12/23 00:52:31;;;;;;;2.58;1.58;;;10.50;99.90;;;10.46;100.00;99861.22;5224496;28;20120;-69
2022/12/23 00:55:03;;;;;;;3.83;1.65;;;10.50;99.90;;;10.46;100.00;99862.09;5206227;28;20055;-70
2022/12/23 00:57:35;;;;;;;1.77;1.15;;;10.50;99.90;;;10.47;100.00;99857.78;5205749;28;20126;-71
2022/12/23 01:00:09;;;;;;;1.75;1.38;;;10.50;99.90;;;10.48;100.00;99863.00;5223762;28;20122;-71
2022/12/23 01:05:39;;;;;;;3.53;1.63;;;10.50;99.90;;;10.47;100.00;99863.84;5193555;28;20359;-71
2022/12/23 01:08:12;;;;;;;2.83;1.55;;;10.50;99.90;;;10.47;100.00;99878.59;5224291;28;20045;-70
2022/12/23 01:10:45;;;;;;;1.90;1.30;;;10.50;99.90;;;10.47;100.00;99878.59;5224825;28;20045;-70
2022/12/23 01:13:17;;;;;;;3.95;1.73;;;10.50;99.90;;;10.46;100.00;99882.94;5223394;28;20103;-71
2022/12/23 01:15:49;;;;;;;2.35;1.25;;;10.50;99.90;;;10.47;100.00;99889.91;5224307;28;20044;-70
2022/12/23 01:18:21;;;;;;;2.45;1.40;;;10.50;99.90;;;10.47;100.00;99889.03;5224167;28;20052;-70
2022/12/23 01:20:53;;;;;;;3.17;1.40;;;10.50;99.90;;;10.47;100.00;99895.13;5227185;28;20107;-70
2022/12/23 01:23:27;;;;;;;2.47;1.30;;;10.50;99.90;;;10.49;100.00;99892.53;5227760;28;20068;-70
2022/12/23 01:26:01;;;;;;;2.30;1.40;;;10.50;99.90;;;10.50;100.00;99899.53;5228100;28;20153;-70
2022/12/23 01:28:34;;;;;;;1.83;1.33;;;10.50;99.90;;;10.50;100.00;99910.84;5206800;28;20045;-70
2022/12/23 01:31:09;;;;;;;1.83;0.93;;;10.50;99.90;;;10.51;100.00;99909.97;5228422;28;20116;-71
2022/12/23 01:33:41;;;;;;;2.05;1.00;;;10.50;99.90;;;10.51;100.00;99909.97;5227989;28;20064;-70
2022/12/23 01:36:13;;;;;;;1.48;1.08;;;10.50;99.90;;;10.51;100.00;99909.97;5212780;28;20049;-70
2022/12/23 01:38:47;;;;;;;2.88;1.23;;;10.50;99.90;;;10.51;100.00;99902.16;5198654;28;20140;-70
2022/12/23 01:44:52;;;;;;;1.23;1.05;;;10.50;99.90;;;10.49;100.00;99914.25;5206656;28;20050;-70
2022/12/23 01:47:32;;;;;;;1.13;0.95;;;10.50;99.90;;;10.49;100.00;99914.25;5189691;28;20045;-70
2022/12/23 01:50:11;;;;;;;2.20;1.27;;;10.50;99.90;;;10.49;100.00;99918.59;5207732;28;20041;-71
2022/12/23 01:52:47;;;;;;;1.67;0.98;;;10.50;99.90;;;10.48;100.00;99922.94;5189965;28;20072;-69
2022/12/23 01:55:26;;;;;;;1.67;1.08;;;10.50;99.90;;;10.48;100.00;99935.97;5207604;28;20045;-70
2022/12/23 01:58:07;;;;;;;1.55;1.05;;;10.50;99.90;;;10.49;100.00;99934.22;5225263;28;20044;-70
2022/12/23 02:03:43;;;;;;;2.00;0.90;;;10.50;99.90;;;10.49;100.00;99939.44;5210028;28;20147;-70
2022/12/23 02:09:19;;;;;;;2.05;1.02;;;10.50;99.90;;;10.51;100.00;99938.66;5227811;28;20044;-70
2022/12/23 02:12:32;;;;;;;0.90;0.80;;;10.50;99.90;;;10.51;100.00;99946.47;5209615;28;20417;-70
2022/12/23 02:18:17;;;;;;;1.58;0.90;;;10.50;99.90;;;10.54;100.00;99953.44;5221991;28;20337;-88
2022/12/23 02:21:20;;;;;;;2.17;0.90;;;10.60;99.90;;;10.54;100.00;99940.44;5214571;28;20048;-87
2022/12/23 02:24:37;;;;;;;2.10;0.90;;;10.50;99.90;;;10.54;100.00;99938.69;5213330;28;20044;-88
2022/12/23 02:27:18;;;;;;;1.13;0.80;;;10.60;99.90;;;10.53;100.00;99936.94;5193616;28;20041;-88
2022/12/23 02:30:32;;;;;;;0.95;0.77;;;10.60;99.90;;;10.53;100.00;99941.28;5192831;28;20049;-88
2022/12/23 02:33:35;;;;;;;1.70;0.70;;;10.60;99.90;;;10.51;100.00;99949.06;5189419;28;20049;-87
2022/12/23 02:36:20;;;;;;;1.20;0.80;;;10.50;99.90;;;10.50;100.00;99954.25;5191801;28;20073;-87
2022/12/23 02:39:02;;;;;;;2.13;0.90;;;10.50;99.90;;;10.50;100.00;99962.06;5191802;28;20045;-87
2022/12/23 02:41:42;;;;;;;1.55;0.75;;;10.50;99.90;;;10.48;100.00;99966.34;5191944;28;20056;-87
2022/12/23 02:44:23;;;;;;;0.70;0.70;;;10.50;99.90;;;10.48;100.00;99963.75;5192005;28;20117;-88
2022/12/23 02:47:01;;;;;;;1.38;0.90;;;10.50;99.90;;;10.48;100.00;99966.34;5192468;28;20046;-88
2022/12/23 02:49:36;;;;;;;0.98;0.68;;;10.50;99.90;;;10.48;100.00;99974.16;5210347;28;20533;-87
2022/12/23 02:52:14;;;;;;;1.10;0.70;;;10.50;99.90;;;10.48;100.00;99971.56;5209552;28;20139;-88
2022/12/23 02:54:52;;;;;;;1.00;0.70;;;10.50;99.90;;;10.48;100.00;99980.25;5191420;28;20601;-87
2022/12/23 02:57:31;;;;;;;1.13;0.70;;;10.50;99.90;;;10.50;100.00;99978.59;5190956;28;20049;-85
2022/12/23 03:00:05;;;;;;;1.27;0.80;;;10.50;99.90;;;10.55;100.00;99973.44;5190229;28;20053;-87
2022/12/23 03:02:41;;;;;;;1.30;0.70;;;10.60;99.90;;;10.54;100.00;99977.78;5187069;28;20049;-86
2022/12/23 03:05:27;;;;;;;1.48;0.80;;;10.60;99.90;;;10.57;100.00;99971.78;5193467;28;20053;-86
2022/12/23 03:08:03;;;;;;;0.93;0.82;;;10.60;99.90;;;10.57;100.00;99975.25;5200983;28;20069;-87
2022/12/23 03:10:55;;;;;;;2.53;1.00;;;10.60;99.90;;;10.58;100.00;99979.63;5196662;28;20057;-87
2022/12/23 03:13:42;;;;;;;1.00;0.90;;;10.60;99.90;;;10.61;100.00;99986.63;5195962;28;20037;-87
2022/12/23 03:16:23;;;;;;;1.08;0.90;;;10.60;99.90;;;10.63;100.00;99989.25;5193409;28;20036;-87
2022/12/23 03:19:10;;;;;;;1.33;1.00;;;10.60;99.90;;;10.64;100.00;100001.47;5198689;28;20045;-86
2022/12/23 03:21:50;;;;;;;1.17;0.93;;;10.70;99.90;;;10.64;100.00;100006.66;5190977;28;20041;-86
2022/12/23 03:24:31;;;;;;;2.10;1.08;;;10.70;99.90;;;10.67;100.00;100018.03;5190847;28;20046;-87
2022/12/23 03:27:10;;;;;;;1.73;0.82;;;10.70;99.90;;;10.68;100.00;100027.59;5190559;28;20045;-87
2022/12/23 03:29:46;;;;;;;1.52;0.90;;;10.70;99.90;;;10.68;100.00;100018.91;5187033;28;20146;-87
2022/12/23 03:32:19;;;;;;;1.77;1.20;;;10.70;99.90;;;10.68;100.00;100025.00;5170318;28;20065;-86
2022/12/23 03:34:56;;;;;;;2.35;1.00;;;10.70;99.90;;;10.70;100.00;100022.44;5170365;28;20408;-89
2022/12/23 03:37:33;;;;;;;1.13;1.00;;;10.70;99.90;;;10.70;100.00;100019.84;5186619;28;20446;-88
2022/12/23 03:40:10;;;;;;;0.80;0.80;;;10.70;99.90;;;10.71;100.00;100024.19;5169765;28;20050;-87
2022/12/23 03:42:49;;;;;;;1.67;1.05;;;10.80;99.90;;;10.69;100.00;100025.88;5169628;28;20046;-86
2022/12/23 03:45:26;;;;;;;1.20;1.02;;;10.70;99.90;;;10.69;100.00;100028.47;5169834;28;20081;-87
2022/12/23 03:48:05;;;;;;;2.45;1.30;;;10.70;99.90;;;10.68;100.00;100024.13;5170771;28;20053;-87
2022/12/23 03:50:41;;;;;;;1.52;1.00;;;10.70;99.90;;;10.68;100.00;100030.22;5186723;28;20046;-89
2022/12/23 03:53:21;;;;;;;2.15;1.05;;;10.70;99.90;;;10.67;100.00;100032.78;5186907;28;20064;-88
2022/12/23 03:55:59;;;;;;;3.67;1.73;;;10.70;99.90;;;10.62;100.00;100023.97;5170400;28;20132;-86
2022/12/23 03:58:37;;;;;;;4.40;1.77;;;10.70;99.90;;;10.62;100.00;100023.97;5187844;28;20045;-88
2022/12/23 04:01:19;;;;;;;2.70;1.40;;;10.70;99.90;;;10.58;100.00;100023.94;5186541;28;20046;-87
2022/12/23 04:04:00;;;;;;;3.45;1.35;;;10.60;99.90;;;10.61;100.00;100030.91;5171075;28;20148;-88
2022/12/23 04:06:40;;;;;;;1.98;1.05;;;10.60;99.90;;;10.59;100.00;100023.06;5186742;28;20042;-88
2022/12/23 04:09:14;;;;;;;2.88;1.13;;;10.70;99.90;;;10.62;100.00;100018.75;5170004;28;20054;-86
2022/12/23 04:11:46;;;;;;;1.80;1.02;;;10.60;99.90;;;10.60;100.00;100022.22;5170490;28;20496;-87
2022/12/23 04:14:20;;;;;;;1.88;1.05;;;10.60;99.90;;;10.60;100.00;100011.78;5188194;28;20077;-88
2022/12/23 04:16:55;;;;;;;2.88;1.00;;;10.60;99.90;;;10.60;100.00;100009.19;5175228;28;20050;-87
2022/12/23 04:19:27;;;;;;;2.00;1.00;;;10.60;99.90;;;10.60;100.00;100017.00;5203476;28;20404;-88
2022/12/23 04:22:01;;;;;;;1.60;0.90;;;10.60;99.90;;;10.60;100.00;100013.53;5173452;28;20050;-88
2022/12/23 04:24:33;;;;;;;1.70;0.73;;;10.60;99.90;;;10.61;100.00;100020.50;5171987;28;20148;-87
2022/12/23 04:27:05;;;;;;;1.48;0.82;;;10.60;99.90;;;10.57;100.00;100014.34;5188176;28;20044;-86
2022/12/23 04:29:38;;;;;;;1.55;0.73;;;10.60;99.90;;;10.60;100.00;100016.13;5169784;28;20431;-86
2022/12/23 04:32:10;;;;;;;0.98;0.73;;;10.70;99.90;;;10.59;100.00;100014.38;5169170;28;20045;-87
2022/12/23 04:34:42;;;;;;;3.15;1.20;;;10.60;99.90;;;10.58;100.00;100018.72;5186938;28;20038;-89
2022/12/23 04:37:16;;;;;;;2.97;1.27;;;10.60;99.90;;;10.59;100.00;100025.69;5169376;28;20050;-87
2022/12/23 04:39:48;;;;;;;1.98;1.00;;;10.60;99.90;;;10.59;100.00;100014.38;5169443;28;20140;-86
2022/12/23 04:42:20;;;;;;;1.98;1.42;;;10.60;99.90;;;10.59;100.00;100019.59;5185375;28;20526;-87
2022/12/23 04:44:52;;;;;;;2.30;0.93;;;10.60;99.90;;;10.57;100.00;100030.00;5169355;28;20050;-86
2022/12/23 04:47:24;;;;;;;1.38;0.93;;;10.60;99.90;;;10.56;100.00;100030.84;5169294;28;20046;-84
2022/12/23 04:49:56;;;;;;;1.20;0.90;;;10.60;99.90;;;10.55;100.00;100041.19;5185870;28;20514;-86
2022/12/23 04:52:30;;;;;;;2.25;1.00;;;10.60;99.90;;;10.53;100.00;100040.28;5186002;28;20053;-87
2022/12/23 04:55:02;;;;;;;1.50;0.93;;;10.60;99.90;;;10.51;100.00;100027.25;5191593;28;20140;-87
2022/12/23 04:57:34;;;;;;;0.82;0.60;;;10.50;99.90;;;10.48;100.00;100024.53;5175690;28;20407;-87
2022/12/23 05:00:08;;;;;;;0.98;0.90;;;10.50;99.90;;;10.47;100.00;100020.19;5193086;28;20046;-87
2022/12/23 05:02:40;;;;;;;1.45;0.82;;;10.50;99.90;;;10.46;100.00;100023.63;5193559;28;20053;-87
2022/12/23 05:05:12;;;;;;;0.93;0.73;;;10.50;99.90;;;10.44;100.00;100021.84;5176161;28;20046;-87
2022/12/23 05:07:48;;;;;;;0.70;0.60;;;10.50;99.90;;;10.45;100.00;100027.09;5192088;28;20392;-87
2022/12/23 05:10:21;;;;;;;1.45;0.93;;;10.50;99.90;;;10.42;100.00;100027.00;5176100;28;20054;-86
2022/12/23 05:12:53;;;;;;;1.15;0.60;;;10.50;99.90;;;10.43;100.00;100028.78;5176267;28;20049;-85
2022/12/23 05:15:25;;;;;;;1.50;1.15;;;10.50;99.90;;;10.45;100.00;100032.31;5175915;28;20053;-86
2022/12/23 05:17:57;;;;;;;1.10;0.90;;;10.50;99.90;;;10.45;100.00;100027.09;5194659;28;20045;-87
2022/12/23 05:20:29;;;;;;;0.77;0.77;;;10.50;99.90;;;10.47;100.00;100035.81;5176520;28;20072;-86
2022/12/23 05:23:02;;;;;;;2.17;0.90;;;10.50;99.90;;;10.48;100.00;100031.50;5177753;28;20050;-87
2022/12/23 05:25:35;;;;;;;0.80;0.70;;;10.50;99.90;;;10.48;100.00;100027.16;5194753;28;20049;-86
2022/12/23 05:28:08;;;;;;;1.13;0.80;;;10.50;99.90;;;10.49;100.00;100030.63;5177198;28;20049;-88
2022/12/23 05:30:40;;;;;;;2.00;0.70;;;10.50;99.90;;;10.49;100.00;100025.44;5192560;28;20396;-86
2022/12/23 05:33:12;;;;;;;1.55;0.88;;;10.60;99.90;;;10.49;100.00;100028.91;5176305;28;20050;-87
2022/12/23 05:35:44;;;;;;;1.60;0.70;;;10.60;99.90;;;10.50;100.00;100035.91;5193130;28;20530;-86
2022/12/23 05:38:17;;;;;;;1.63;0.85;;;10.60;99.90;;;10.49;100.00;100043.66;5194703;28;20411;-86
2022/12/23 05:40:50;;;;;;;0.85;0.73;;;10.60;99.90;;;10.50;100.00;100038.50;5177553;28;20050;-87
2022/12/23 05:43:23;;;;;;;0.60;0.60;;;10.60;99.90;;;10.51;100.00;100042.88;5192758;28;20045;-86
2022/12/23 05:45:55;;;;;;;0.52;0.52;;;10.50;99.90;;;10.52;100.00;100039.41;5176294;28;20045;-86
2022/12/23 05:48:27;;;;;;;0.85;0.63;;;10.50;99.90;;;10.52;100.00;100043.75;5176569;28;20077;-86
2022/12/23 05:50:59;;;;;;;1.08;0.80;;;10.60;99.90;;;10.51;100.00;100048.09;5176934;28;20053;-87
2022/12/23 05:53:33;;;;;;;0.60;0.60;;;10.60;99.90;;;10.50;100.00;100046.34;5176349;28;20049;-86
2022/12/23 05:56:07;;;;;;;1.88;0.73;;;10.50;99.90;;;10.49;100.00;100048.88;5176440;28;20054;-87
2022/12/23 05:58:39;;;;;;;0.65;0.60;;;10.50;99.90;;;10.48;100.00;100063.63;5175971;28;20050;-86
2022/12/23 06:01:11;;;;;;;1.05;0.65;;;10.50;99.90;;;10.47;100.00;100064.47;5176904;28;20075;-86
2022/12/23 06:03:43;;;;;;;2.97;0.98;;;10.50;99.90;;;10.46;100.00;100073.16;5176509;28;20476;-86
2022/12/23 06:06:15;;;;;;;1.92;0.70;;;10.50;99.90;;;10.45;100.00;100067.91;5172867;28;20050;-87
2022/12/23 06:08:49;;;;;;;1.15;0.73;;;10.50;99.90;;;10.43;100.00;100065.28;5189323;28;20508;-86
2022/12/23 06:11:21;;;;;;;1.48;0.80;;;10.50;99.90;;;10.45;100.00;100081.81;5173073;28;20053;-88
2022/12/23 06:13:53;;;;;;;1.02;0.80;;;10.50;99.90;;;10.46;100.00;100085.31;5189557;28;20050;-86
2022/12/23 06:16:25;;;;;;;0.85;0.70;;;10.50;99.90;;;10.46;100.00;100086.19;5190263;28;20037;-86
2022/12/23 06:18:57;;;;;;;1.27;0.55;;;10.50;99.90;;;10.46;100.00;100088.78;5189714;28;20109;-87
2022/12/23 06:21:29;;;;;;;0.88;0.70;;;10.50;99.90;;;10.46;100.00;100080.97;5173725;28;20064;-87
2022/12/23 06:24:03;;;;;;;1.50;0.60;;;10.50;99.90;;;10.46;100.00;100075.75;5192097;28;20065;-87
2022/12/23 06:26:35;;;;;;;0.52;0.52;;;10.50;99.90;;;10.47;100.00;100072.28;5173767;28;20060;-86
2022/12/23 06:29:07;;;;;;;0.57;0.52;;;10.50;99.90;;;10.47;100.00;100072.28;5173099;28;20053;-87
2022/12/23 06:31:39;;;;;;;0.70;0.63;;;10.50;99.90;;;10.46;100.00;100070.53;5173159;28;20054;-88
2022/12/23 06:34:11;;;;;;;1.58;0.80;;;10.50;99.90;;;10.42;100.00;100063.47;5173852;28;20397;-88
2022/12/23 06:36:44;;;;;;;1.63;0.77;;;10.50;99.90;;;10.44;100.00;100069.63;5172769;28;20352;-86
2022/12/23 06:39:17;;;;;;;1.35;0.85;;;10.50;99.90;;;10.42;100.00;100058.28;5189683;28;20425;-86
2022/12/23 06:41:49;;;;;;;1.05;0.65;;;10.50;99.90;;;10.44;100.00;100055.72;5173137;28;20462;-85
2022/12/23 06:44:21;;;;;;;0.55;0.55;;;10.50;99.90;;;10.46;100.00;100054.03;5189094;28;20050;-85
2022/12/23 06:46:53;;;;;;;0.93;0.57;;;10.40;99.90;;;10.42;100.00;100047.84;5188319;28;20416;-86
2022/12/23 06:49:25;;;;;;;1.02;0.90;;;10.50;99.90;;;10.47;100.00;100063.59;5172264;28;20052;-87
2022/12/23 06:51:57;;;;;;;0.65;0.65;;;10.50;99.90;;;10.47;100.00;100067.09;5188755;28;20060;-86
2022/12/23 06:54:31;;;;;;;1.10;0.82;;;10.50;99.90;;;10.47;100.00;100061.88;5172424;28;20058;-87
2022/12/23 06:57:03;;;;;;;1.42;0.77;;;10.50;99.90;;;10.47;100.00;100067.09;5174102;28;20463;-87
2022/12/23 06:59:35;;;;;;;0.80;0.77;;;10.50;99.90;;;10.48;100.00;100062.75;5173801;28;20046;-87
2022/12/23 07:02:10;;;;;;;0.70;0.70;;;10.50;99.90;;;10.47;100.00;100061.88;5191495;28;20117;-89
2022/12/23 07:04:42;;;;;;;0.93;0.63;;;10.50;99.90;;;10.47;100.00;100061.00;5189213;28;20121;-88
2022/12/23 07:07:14;;;;;;;0.63;0.63;;;10.50;99.90;;;10.48;100.00;100058.41;5189462;28;20664;-87
2022/12/23 07:09:48;;;;;;;0.63;0.63;;;10.50;99.90;;;10.49;100.00;100060.19;5188987;28;20046;-86
2022/12/23 07:12:20;;;;;;;0.60;0.45;;;10.50;99.90;;;10.48;100.00;100063.63;5173107;28;20088;-87
2022/12/23 07:14:52;;;;;;;1.48;0.80;;;10.50;99.90;;;10.49;100.00;100081.03;5190864;28;20053;-86
2022/12/23 07:17:24;;;;;;;0.60;0.60;;;10.50;99.90;;;10.50;100.00;100090.63;5175581;28;20083;-85
2022/12/23 07:19:56;;;;;;;0.85;0.60;;;10.50;99.90;;;10.47;100.00;100100.97;5181570;28;20046;-87
2022/12/23 07:22:28;;;;;;;0.50;0.50;;;10.60;99.90;;;10.51;100.00;100115.84;5187260;28;20438;-88
2022/12/23 07:25:01;;;;;;;0.50;0.50;;;10.50;99.90;;;10.51;100.00;100120.16;5187222;28;20053;-87
2022/12/23 07:27:33;;;;;;;1.55;0.65;;;10.50;99.90;;;10.47;100.00;100118.31;5187216;28;20054;-86
2022/12/23 07:30:08;;;;;;;2.22;0.60;;;10.50;99.90;;;10.48;100.00;100125.28;5170945;28;20045;-87
2022/12/23 07:32:40;;;;;;;1.05;0.63;;;10.50;99.90;;;10.44;100.00;100119.13;5171494;28;20053;-87
2022/12/23 07:35:12;;;;;;;0.52;0.52;;;10.50;99.90;;;10.44;100.00;100121.75;5189250;28;20052;-86
2022/12/23 07:37:44;;;;;;;0.75;0.52;;;10.50;99.90;;;10.48;100.00;100123.56;5171019;28;20129;-87
2022/12/23 07:40:18;;;;;;;1.02;0.43;;;10.50;99.90;;;10.49;100.00;100122.72;5170848;28;20046;-88
2022/12/23 07:42:50;;;;;;;0.70;0.70;;;10.50;99.90;;;10.49;100.00;100117.50;5171706;28;20405;-86
2022/12/23 07:45:23;;;;;;;0.85;0.70;;;10.50;99.90;;;10.51;100.00;100131.47;5187923;28;20048;-87
2022/12/23 07:47:56;;;;;;;1.77;1.23;;;10.50;99.90;;;10.50;100.00;100128.84;5189035;28;20054;-85
2022/12/23 07:50:29;;;;;;;0.70;0.70;;;10.50;99.90;;;10.49;100.00;100130.53;5191263;28;20072;-85
2022/12/23 07:53:01;;;;;;;0.73;0.70;;;10.50;99.90;;;10.50;100.00;100131.44;5176202;28;20074;-84
2022/12/23 07:55:34;;;;;;;0.80;0.80;;;10.60;99.90;;;10.49;100.00;100133.13;5177151;28;20121;-85
2022/12/23 07:58:07;;;;;;;1.02;0.90;;;10.50;99.90;;;10.49;100.00;100133.13;5175666;28;20050;-84
2022/12/23 08:00:39;;;;;;;0.85;0.82;;;10.50;99.90;;;10.51;100.00;100125.38;5174681;28;20137;-84
2022/12/23 08:03:12;;;;;;;1.23;0.70;;;10.50;99.90;;;10.52;100.00;100128.00;5192376;28;20041;-85
2022/12/23 08:05:44;;;;;;;0.55;0.55;;;10.50;99.90;;;10.55;100.00;100135.91;5198078;28;20113;-87
2022/12/23 08:08:16;;;;;;;0.88;0.73;;;10.50;99.90;;;10.57;100.00;100136.84;5177821;28;20060;-83
2022/12/23 08:10:49;;;;;;;1.00;0.60;;;10.60;99.90;;;10.58;100.00;100128.16;5176043;28;20141;-85
2022/12/23 08:13:22;;;;;;;0.70;0.60;;;10.60;99.90;;;10.59;100.00;100126.44;5194778;28;20423;-85
2022/12/23 08:15:59;;;;;;;0.85;0.68;;;10.60;99.90;;;10.60;100.00;100133.41;5406540;23;20431;-57
2022/12/23 08:18:33;;;;;;;1.50;0.77;;;10.60;99.90;;;10.62;100.00;100125.63;5216807;28;20052;-58
2022/12/23 08:21:07;;;;;;;0.95;0.85;;;10.60;99.90;;;10.61;100.00;100132.56;5223487;28;20041;-57
2022/12/23 08:23:40;;;;;;;2.25;0.75;;;10.60;99.90;;;10.63;100.00;100114.34;5222750;28;20045;-58
2022/12/23 08:26:16;;;;;;;1.25;0.85;;;10.60;99.90;;;10.62;100.00;100116.06;5224036;28;20525;-58
2022/12/23 08:28:52;;;;;;;1.75;0.70;;;10.60;99.90;;;10.62;100.00;100105.66;5223362;28;20056;-57
2022/12/23 08:31:27;;;;;;;1.58;0.80;;;10.60;99.90;;;10.64;100.00;100116.13;5203349;28;20616;-58
2022/12/23 08:34:00;;;;;;;0.70;0.70;;;10.60;99.90;;;10.62;100.00;100102.16;5203284;28;20076;-57
2022/12/23 08:36:34;;;;;;;0.52;0.52;;;10.60;99.90;;;10.60;100.00;100105.63;5203593;28;20041;-58
2022/12/23 08:39:09;;;;;;;0.55;0.52;;;10.60;99.90;;;10.60;100.00;100100.41;5203180;28;20376;-57
2022/12/23 08:41:45;;;;;;;0.70;0.60;;;10.60;99.90;;;10.62;100.00;100096.94;5212992;28;20045;-58
2022/12/23 08:44:18;;;;;;;1.30;0.63;;;10.60;99.90;;;10.62;100.00;100099.56;5224011;28;20520;-61
2022/12/23 08:46:50;;;;;;;0.95;0.50;;;10.60;99.90;;;10.64;100.00;100110.91;5224217;28;20072;-62
2022/12/23 08:49:22;;;;;;;0.43;0.43;;;10.60;99.90;;;10.65;100.00;100116.16;5223883;28;20121;-58
2022/12/23 08:51:54;;;;;;;0.55;0.55;;;10.70;99.90;;;10.65;100.00;100110.94;5224130;28;20056;-59
2022/12/23 08:54:28;;;;;;;1.05;0.70;;;10.60;99.90;;;10.66;100.00;100109.22;5223872;28;20045;-59
2022/12/23 08:57:01;;;;;;;0.70;0.70;;;10.60;99.90;;;10.67;100.00;100110.97;5223621;28;20124;-59
2022/12/23 08:59:33;;;;;;;0.55;0.55;;;10.70;99.90;;;10.67;100.00;100110.97;5223592;28;20080;-58
2022/12/23 09:02:06;;;;;;;0.50;0.50;;;10.60;99.90;;;10.67;100.00;100106.63;5224076;28;20119;-59
2022/12/23 09:04:39;;;;;;;0.73;0.73;;;10.70;99.90;;;10.67;100.00;100110.97;5224162;28;20129;-59
2022/12/23 09:07:11;;;;;;;0.93;0.52;;;10.60;99.90;;;10.66;100.00;100102.28;5212912;28;20045;-61
2022/12/23 09:09:43;;;;;;;1.15;1.10;;;10.60;99.90;;;10.67;100.00;100116.19;5217270;28;20041;-58
2022/12/23 09:12:16;;;;;;;0.63;0.52;;;10.70;99.90;;;10.68;100.00;100117.94;5223735;28;20387;-59
2022/12/23 09:14:48;;;;;;;0.63;0.60;;;10.70;99.90;;;10.69;100.00;100122.31;5213337;28;20049;-58
2022/12/23 09:17:20;;;;;;;0.60;0.52;;;10.70;99.90;;;10.70;100.00;100121.50;5204118;28;20516;-57
2022/12/23 09:19:52;;;;;;;0.52;0.52;;;10.70;99.90;;;10.71;100.00;100118.03;5222826;28;20043;-57
2022/12/23 09:22:25;;;;;;;0.45;0.45;;;10.70;99.90;;;10.70;100.00;100117.16;5222850;28;20049;-57
2022/12/23 09:24:57;;;;;;;0.88;0.73;;;10.70;99.90;;;10.97;100.00;100111.69;5223724;28;20072;-59
2022/12/23 09:27:30;;;;;;;5.13;1.50;;;10.90;99.90;;;11.07;100.00;100103.19;5222539;28;20148;-58
2022/12/23 09:30:02;;;;;;;1.45;0.90;;;11.10;99.90;;;11.06;100.00;100095.34;5223155;28;20052;-57
2022/12/23 09:32:35;;;;;;;1.83;1.10;;;11.10;99.90;;;11.02;100.00;100098.72;5223023;28;20095;-60
2022/12/23 09:35:08;;;;;;;1.30;0.95;;;11.10;99.90;;;10.99;100.00;100093.47;5223882;28;20128;-58
2022/12/23 09:37:40;;;;;;;1.48;0.75;;;11.00;99.90;;;10.96;100.00;100089.06;5223205;28;20045;-59
2022/12/23 09:40:16;;;;;;;0.80;0.73;;;11.00;99.90;;;10.93;100.00;100089.00;5223908;28;20045;-58
2022/12/23 09:43:05;;;;;;;1.63;0.80;;;10.90;99.90;;;10.91;100.00;100082.88;5227253;28;20409;-59
2022/12/23 09:45:52;;;;;;;0.90;0.77;;;10.90;99.90;;;10.90;100.00;100083.72;5227106;28;20085;-60
2022/12/23 09:48:33;;;;;;;3.15;1.67;;;10.90;99.90;;;10.87;100.00;100075.81;5227945;28;20048;-59
2022/12/23 09:51:06;;;;;;;3.10;1.90;;;10.90;99.90;;;10.84;100.00;100067.94;5227876;28;20571;-58
2022/12/23 09:53:49;;;;;;;2.92;1.55;;;10.90;99.90;;;10.82;100.00;100053.97;5227768;28;20049;-58
2022/12/23 09:56:31;;;;;;;3.50;2.10;;;10.80;99.90;;;10.80;100.00;100063.50;5227653;28;20053;-60
2022/12/23 09:59:18;;;;;;;7.15;2.92;;;10.80;99.90;;;11.02;100.00;100059.59;5227065;28;20114;-57
2022/12/23 10:01:58;;;;;;;5.38;2.95;;;11.00;99.90;;;11.06;100.00;100053.63;5227603;28;20045;-60
2022/12/23 10:04:41;;;;;;;3.63;1.90;;;11.10;99.90;;;11.01;100.00;100053.50;5227359;28;20051;-58
2022/12/23 10:07:33;;;;;;;3.05;1.52;;;11.10;99.90;;;10.96;100.00;100047.34;5228026;28;20055;-59
2022/12/23 10:10:26;;;;;;;2.95;1.77;;;11.00;99.90;;;10.92;100.00;100048.13;5227155;28;20417;-58
2022/12/23 10:13:02;;;;;;;3.42;2.13;;;11.00;99.90;;;10.89;100.00;100045.47;5227009;28;20049;-58
2022/12/23 10:15:39;;;;;;;4.45;2.08;;;11.00;99.90;;;10.87;100.00;100047.13;5226943;28;20057;-58
2022/12/23 10:18:20;;;;;;;3.22;1.50;;;10.90;99.90;;;10.84;100.00;100042.75;5208397;28;20049;-57
2022/12/23 10:20:58;;;;;;;2.97;1.80;;;10.90;99.90;;;10.83;100.00;100029.69;5226967;28;20049;-59
2022/12/23 10:23:37;;;;;;;2.72;1.50;;;10.90;99.90;;;10.79;100.00;100020.91;5226765;28;20045;-58
2022/12/23 10:26:21;;;;;;;2.30;1.38;;;10.80;99.90;;;10.78;100.00;100006.13;5226437;28;20047;-57
2022/12/23 10:29:00;;;;;;;2.03;1.52;;;10.80;99.90;;;10.75;100.00;100006.03;5226163;28;20041;-58
2022/12/23 10:31:47;;;;;;;2.17;1.40;;;10.80;99.90;;;10.73;100.00;100001.63;5226648;28;20178;-57
2022/12/23 10:34:29;;;;;;;2.58;1.23;;;10.80;99.90;;;10.74;100.00;99993.84;5226970;28;20328;-57
2022/12/23 10:37:08;;;;;;;1.95;1.30;;;10.80;99.90;;;10.75;100.00;99993.00;5226214;28;20044;-60
2022/12/23 10:39:53;;;;;;;2.47;1.77;;;10.80;99.90;;;10.71;100.00;99990.31;5225934;28;20048;-58
2022/12/23 10:42:34;;;;;;;2.53;1.45;;;10.80;99.90;;;10.69;100.00;99981.56;5208330;28;20064;-58
2022/12/23 10:45:40;;;;;;;1.42;1.20;;;10.70;99.90;;;10.67;100.00;99970.22;5226189;28;20053;-58
2022/12/23 10:48:31;;;;;;;2.10;1.48;;;10.70;99.90;;;10.66;100.00;99960.66;5225793;28;20049;-57
2022/12/23 10:51:10;;;;;;;1.83;1.23;;;10.70;99.90;;;10.66;100.00;99956.31;5225606;28;20041;-58
2022/12/23 10:53:50;;;;;;;8.18;4.25;;;10.70;99.90;;;10.63;100.00;99942.34;5226015;28;20421;-58
2022/12/23 10:56:23;;;;;;;7.38;2.92;;;10.70;99.90;;;10.59;100.00;99939.69;5225831;28;20052;-59
2022/12/23 10:58:59;;;;;;;4.32;2.58;;;10.70;99.90;;;10.63;100.00;99947.53;5207345;28;20057;-58
2022/12/23 11:01:32;;;;;;;5.70;2.72;;;10.70;99.90;;;10.60;100.00;99944.03;5225757;28;20140;-58
2022/12/23 11:04:09;;;;;;;4.90;2.75;;;10.70;99.90;;;10.62;100.00;99945.78;5225592;28;20105;-57
2022/12/23 11:06:44;;;;;;;5.75;3.90;;;10.70;99.90;;;10.62;100.00;99940.56;5225762;28;20041;-57